• Join FlightAware (Why Join?)
  • Login
  • US Flag 
01:17PM EDT


 

Airport Tracker/Info


-or-


 

Live Flight TrackerFlight Track Log ✈ DAL6036 ✈ 22-Jun-2013 ✈ KLGA - KACK

Flight Track Log - Related Links

Times and Time Zones

All times are in EDT time to prevent confusion due to time zone crossing. See the DAL6036 flight status page for this flight to view local times or setup timezone preferences in your user account.

Time Position Orientation Groundspeed Altitude Reporting Facility
EDT Latitude Longitude Course Direction KTS MPH feet Rate Location/Type
08:56AM 40.8236 -73.9019 56° Northeast 206 237 2,300  Level Boston Center
08:57AM 40.8947 -73.8925 North 235 270 5,000 3,000 Climbing Boston Center
08:58AM 40.9353 -73.8083 57° Northeast 235 270 8,300 2,760 Climbing Boston Center
08:59AM 41.0264 -73.4155 54° Northeast  Level FlightAware Approximate
08:59AM 40.9781 -73.7131 59° Northeast 253 291 10,600  Level Boston Center
09:00AM 41.0909 -73.2974 54° Northeast  Level FlightAware Approximate
09:00AM 41.0211 -73.6039 62° Northeast 313 360 12,300  Level Boston Center
09:01AM 41.1586 -73.1829 56° Northeast  Level FlightAware Approximate
09:01AM 41.0678 -73.4972 60° Northeast 358 412 13,700  Level Boston Center
09:02AM 41.2068 -73.0865 56° Northeast  Level FlightAware Approximate
09:02AM 41.1233 -73.3603 62° Northeast 371 427 15,300  Level Boston Center
09:03AM 41.1806 -73.2344 59° Northeast 381 438 16,700 1,200 Climbing Boston Center
09:04AM 41.2356 -73.1053 60° Northeast 386 444 17,800 960 Climbing Boston Center
09:05AM 41.2819 -72.9897 62° Northeast 393 452 18,700 600 Climbing Boston Center
09:06AM 41.2972 -72.8103 83° East 420 483 19,000 120 Climbing Boston Center
09:07AM 41.3019 -72.6694 87° East 431 496 19,000  Level Boston Center
09:08AM 41.3125 -72.4925 85° East 431 496 19,000  Level Boston Center
09:09AM 41.3167 -72.3461 88° East 437 503 19,000  Level Boston Center
09:10AM 41.3247 -72.1803 86° East 446 513 19,000 -60 Level Boston Center
09:11AM 41.3325 -72.0033 87° East 439 505 18,900 -540 Descending Boston Center
09:12AM 41.3403 -71.8594 86° East 439 505 18,000 -900 Descending Boston Center
09:13AM 41.3475 -71.6908 87° East 427 491 17,200 -540 Descending Boston Center
09:14AM 41.3547 -71.5497 86° East 422 486 17,000 -120 Descending Boston Center
09:15AM 41.3408 -71.3783 96° East 417 480 17,000 -300 Level Boston Center
09:16AM 41.2897 -71.2578 119° Southeast 417 480 16,500 -1,080 Descending Boston Center
09:17AM 41.2297 -71.1125 119° Southeast 411 473 14,900 -1,500 Descending Boston Center
09:18AM 41.1803 -70.9950 119° Southeast 410 472 13,600 -1,500 Descending Boston Center
09:19AM 41.1367 -70.8525 112° Southeast 390 449 12,000 -1,560 Descending Boston Center
09:20AM 41.1286 -70.7289 95° East 349 402 10,500 -1,560 Descending Boston Center
09:21AM 41.1228 -70.6214 94° East 317 365 8,900 -1,740 Descending Boston Center
09:22AM 41.1189 -70.5197 93° East 294 338 7,100 -1,500 Descending Boston Center
09:23AM 41.1133 -70.4261 94° East 274 315 5,900 -1,080 Descending Boston Center
09:24AM 41.1094 -70.3325 93° East 254 292 5,000 -480 Descending Boston Center
09:25AM 41.1078 -70.2472 91° East 244 281 5,000 -540 Level Boston Center
09:26AM 41.1228 -70.1639 77° East 232 267 4,000 -960 Descending Boston Center
09:27AM 41.1419 -70.0833 72° East 227 261 3,100 -540 Descending Boston Center
09:28AM 41.1592 -70.0056 74° East 220 253 3,000 -300 Descending Boston Center
09:29AM 41.1911 -69.9436 56° Northeast 208 239 2,500 -600 Descending Boston Center
09:30AM 41.2406 -69.9197 20° North 188 216 1,900 -660 Descending Boston Center
09:31AM 41.2706 -69.9572 317° Northwest 122 140 1,200 -720 Descending Boston Center